M I D A S
Marine Information and Data Acquisition System
Tripno 1545 of the Zeeleeuw from 2008-08-27 04:20:40 to 2008-08-27 15:05:10
Back to CruiseResearch ActivitiesStationsMapUnderway DataData graphs

EquipmentUnitsComment
TimeDGPSUTC
LatitudeDGPSDM.mWGS84
LongitudeDGPSDM.mWGS84
TemperatureSBE03/SBE38deg celciusITS90
ConductivitySBE21S/mITS90
SalinitySBE21 Practical Salinity Units
ChlorophylAChelsea fluorimeterg/lCalibrated in Aceton
Missing or incorrect values are displayed as -999
Sea surface data collected by the RV Zeeleeuw from 2008-08-27 04:15:07 to 2008-08-27 15:06:04
Time Latitude Longitude Temperature Conductivity Salinity ChlorophylA
2008-08-27 04:16:12 51°13.622 2°56.046 20.5825 0.064538 0.334405 -1.174688
2008-08-27 04:17:12 51°13.622 2°56.046 20.5894 0.064538 0.334422 -1.174688
2008-08-27 04:18:12 51°13.622 2°56.047 20.5846 0.064538 0.334433 -1.174688
2008-08-27 04:19:12 51°13.622 2°56.047 20.5933 0.064538 0.334455 -1.174688
2008-08-27 04:20:12 51°13.623 2°56.048 20.6016 0.064538 0.334471 -1.174688
2008-08-27 04:21:12 51°13.623 2°56.046 20.5601 0.064538 0.334488 -1.174688
2008-08-27 04:22:12 51°13.63 2°56.022 20.6244 0.064538 0.334499 -1.174688
2008-08-27 04:23:12 51°13.61 2°56.068 20.5874 0.064538 0.334526 -1.174688
2008-08-27 04:24:12 51°13.577 2°56.137 20.5896 0.064538 0.334537 -1.174688
2008-08-27 04:25:12 51°13.551 2°56.204 20.4854 0.064538 0.334543 -1.174688
2008-08-27 04:26:12 51°13.523 2°56.231 20.6079 0.064538 0.334581 -1.174688
2008-08-27 04:27:12 51°13.52 2°56.228 20.6241 0.064538 0.334581 -1.174688
2008-08-27 04:28:12 51°13.529 2°56.236 20.6394 0.064538 0.334609 -1.174688
2008-08-27 04:29:12 51°13.527 2°56.184 20.5506 0.064538 0.334631 -1.174688
2008-08-27 04:30:12 51°13.578 2°56.072 20.618 0.064538 0.334647 -1.174688
2008-08-27 04:31:12 51°13.647 2°55.925 20.6125 0.064538 0.334653 -1.174688
2008-08-27 04:32:12 51°13.724 2°55.77 20.5739 0.064538 0.334647 -1.174688
2008-08-27 04:33:12 51°13.822 2°55.645 20.5861 0.064538 0.334647 -1.174688
2008-08-27 04:34:12 51°13.938 2°55.564 20.638 0.064538 0.334653 -1.174688
2008-08-27 04:35:12 51°14.054 2°55.481 20.6292 0.064538 0.334631 -1.174688
2008-08-27 04:36:12 51°14.167 2°55.393 20.651 0.064538 0.334609 -1.174688
2008-08-27 04:37:12 51°14.264 2°55.261 20.6353 0.064538 0.334587 -1.174688
2008-08-27 04:38:12 51°14.354 2°55.079 20.6622 0.064538 0.33457 -1.174688
2008-08-27 04:39:12 51°14.443 2°54.845 20.6558 0.064538 0.334559 -1.174688
2008-08-27 04:40:12 51°14.531 2°54.558 20.629 0.064538 0.334554 -1.174688
2008-08-27 04:41:12 51°14.607 2°54.254 20.6355 0.064538 0.334554 -1.174688
2008-08-27 04:42:12 51°14.68 2°53.952 20.642 0.064538 0.334554 -1.174688
2008-08-27 04:43:12 51°14.733 2°53.639 20.6535 0.064538 0.334548 -1.174688
2008-08-27 04:44:12 51°14.76 2°53.316 20.6549 0.064538 0.334532 -1.174688
2008-08-27 04:45:12 51°14.784 2°52.995 20.6419 0.064538 0.334515 -1.174688
2008-08-27 04:46:12 51°14.799 2°52.673 20.6549 0.064538 0.334493 -1.174688
2008-08-27 04:47:12 51°14.817 2°52.351 20.615 0.064538 0.334471 -1.174688
2008-08-27 04:48:12 51°14.84 2°52.03 20.6252 0.064538 0.334433 -1.174688
2008-08-27 04:49:12 51°14.876 2°51.71 20.6444 0.064538 0.3344 -1.174688
2008-08-27 04:50:12 51°14.913 2°51.388 20.6624 0.064641 0.33491 -1.174688
2008-08-27 04:51:12 51°14.954 2°51.066 20.6263 0.064641 0.334866 -1.139864
2008-08-27 04:52:12 51°15.008 2°50.748 20.6475 0.064641 0.334822 -1.174688
2008-08-27 04:53:12 51°15.06 2°50.428 20.6508 0.064641 0.334761 -1.174688
2008-08-27 04:54:12 51°15.113 2°50.108 20.6444 0.064641 0.334718 -1.174688
2008-08-27 04:55:12 51°15.169 2°49.791 20.6727 0.064641 0.334663 -1.174688
2008-08-27 04:56:12 51°15.229 2°49.476 20.6638 0.064641 0.334602 -1.139864
2008-08-27 04:57:12 51°15.291 2°49.163 20.6475 0.064641 0.334536 -1.174688
2008-08-27 04:58:12 51°15.367 2°48.861 20.7028 0.064641 0.334482 -1.174688
2008-08-27 04:59:12 51°15.443 2°48.562 20.6958 0.064744 0.334969 -1.174688
2008-08-27 05:00:12 51°15.52 2°48.267 20.7027 0.064744 0.334942 -1.174688
2008-08-27 05:01:12 51°15.596 2°47.969 20.707 0.064744 0.334914 -1.174688
2008-08-27 05:02:12 51°15.671 2°47.669 20.7139 0.064744 0.334892 -1.139864
2008-08-27 05:03:12 51°15.747 2°47.367 20.7211 0.064744 0.33487 -1.174688
2008-08-27 05:04:12 51°15.834 2°47.073 20.7365 0.064744 0.334865 -1.174688
2008-08-27 05:05:12 51°15.915 2°46.779 20.7427 0.064744 0.334854 -1.174688
2008-08-27 05:06:12 51°15.995 2°46.485 20.7444 0.064744 0.334843 -1.174688
2008-08-27 05:07:12 51°16.08 2°46.197 20.741 0.064744 0.334821 -1.174688
2008-08-27 05:08:12 51°16.165 2°45.912 20.7523 0.064744 0.334793 -1.174688
2008-08-27 05:09:12 51°16.245 2°45.627 20.7649 0.064744 0.334739 -1.174688
2008-08-27 05:10:12 51°16.324 2°45.34 20.7705 0.064744 0.334689 -1.174688
2008-08-27 05:11:12 51°16.402 2°45.053 20.7582 0.064744 0.334629 -1.174688
2008-08-27 05:12:12 51°16.488 2°44.773 20.7881 0.064847 0.335116 -1.174688
2008-08-27 05:13:12 51°16.585 2°44.501 20.7938 0.064847 0.335056 -1.174688
2008-08-27 05:14:12 51°16.693 2°44.238 20.7866 0.064847 0.334979 -1.174688
2008-08-27 05:15:12 51°16.795 2°43.968 20.8039 0.064847 0.334913 -1.174688
2008-08-27 05:16:12 51°16.9 2°43.701 20.8077 0.064847 0.334842 -1.174688
2008-08-27 05:17:12 51°17.006 2°43.432 20.8234 0.064847 0.33476 -1.174688
2008-08-27 05:18:12 51°17.111 2°43.161 20.8315 0.06495 0.335224 -1.174688
2008-08-27 05:19:12 51°17.223 2°42.899 20.8252 0.06495 0.335153 -1.174688
2008-08-27 05:20:12 51°17.338 2°42.639 20.853 0.06495 0.335066 -1.174688
2008-08-27 05:21:12 51°17.454 2°42.376 20.8521 0.06495 0.335011 -1.174688
2008-08-27 05:22:12 51°17.567 2°42.109 20.8683 0.06495 0.334956 -1.174688
2008-08-27 05:23:12 51°17.678 2°41.843 20.8719 0.06495 0.334885 -1.174688
2008-08-27 05:24:12 51°17.796 2°41.59 20.8788 0.065053 0.335371 -1.174688
2008-08-27 05:25:12 51°17.918 2°41.336 20.9015 0.065053 0.335316 -1.174688
2008-08-27 05:26:12 51°18.04 2°41.088 20.8932 0.065053 0.335283 -1.174688
2008-08-27 05:27:12 51°18.162 2°40.839 20.9232 0.065053 0.335245 -1.174688
2008-08-27 05:28:12 51°18.289 2°40.593 20.933 0.065053 0.335223 -1.174688
2008-08-27 05:29:12 51°18.415 2°40.343 20.9321 0.065053 0.335201 -1.174688
2008-08-27 05:30:12 51°18.543 2°40.095 20.9329 0.065053 0.335196 -1.174688
2008-08-27 05:31:12 51°18.674 2°39.854 20.962 0.065053 0.33519 -1.174688
2008-08-27 05:32:12 51°18.803 2°39.613 20.9712 0.065053 0.335185 -1.174688
2008-08-27 05:33:12 51°18.931 2°39.37 20.9781 0.065053 0.33519 -1.174688
2008-08-27 05:34:12 51°19.055 2°39.125 20.9937 0.065053 0.33519 -1.174688
2008-08-27 05:35:12 51°19.178 2°38.879 20.9861 0.065053 0.335196 -1.174688
2008-08-27 05:36:12 51°19.304 2°38.635 21.0162 0.065053 0.335201 -1.174688
2008-08-27 05:37:12 51°19.427 2°38.393 21.0114 0.065053 0.335212 -1.174688
2008-08-27 05:38:12 51°19.545 2°38.142 21.0257 0.065053 0.335212 -1.174688
2008-08-27 05:39:12 51°19.679 2°37.916 21.0293 0.065053 0.335245 -1.174688
2008-08-27 05:40:12 51°19.79 2°37.692 21.0488 0.065053 0.335251 -1.174688
2008-08-27 05:41:12 51°19.878 2°37.511 21.0533 0.065053 0.335261 -1.174688
2008-08-27 05:42:12 51°19.955 2°37.365 21.0596 0.065053 0.335278 -1.174688
2008-08-27 05:43:12 51°20.008 2°37.227 21.0865 0.065053 0.3353 -1.174688
2008-08-27 05:44:12 51°20.055 2°37.128 21.0887 0.065053 0.335349 -1.174688
2008-08-27 05:45:12 51°20.079 2°37.069 21.1001 0.065053 0.335338 -1.174688
2008-08-27 05:46:12 51°20.096 2°37.034 21.1128 0.065053 0.335354 -1.174688
2008-08-27 05:47:12 51°20.11 2°37.006 21.1153 0.065053 0.335371 -1.174688
2008-08-27 05:48:12 51°20.114 2°36.993 21.1414 0.065053 0.335376 -1.174688
2008-08-27 05:49:12 51°20.114 2°36.989 21.1513 0.065053 0.335404 -1.174688
2008-08-27 05:50:12 51°20.112 2°36.992 21.1448 0.065053 0.335426 -1.174688
2008-08-27 05:51:12 51°20.126 2°36.987 21.1647 0.065053 0.335436 -1.174688
2008-08-27 05:52:12 51°20.154 2°36.916 21.1824 0.06495 0.334907 -1.174688
2008-08-27 05:53:12 51°20.138 2°36.84 21.1764 0.065053 0.335464 -1.174688
2008-08-27 05:54:12 51°20.12 2°36.832 21.2001 0.06495 0.334934 -1.174688
2008-08-27 05:55:12 51°20.114 2°36.84 21.1936 0.06495 0.33494 -1.174688
2008-08-27 05:56:12 51°20.113 2°36.843 21.2178 0.06495 0.334973 -1.174688
2008-08-27 05:57:12 51°20.11 2°36.846 21.2328 0.06495 0.334989 -1.174688
2008-08-27 05:58:12 51°20.106 2°36.854 21.2386 0.06495 0.335011 -1.174688
2008-08-27 05:59:12 51°20.098 2°36.866 21.2566 0.06495 0.335022 -1.174688
2008-08-27 06:00:12 51°20.089 2°36.875 21.2624 0.06495 0.335044 -1.174688
2008-08-27 06:01:12 51°20.087 2°36.878 21.2632 0.06495 0.33506 -1.174688
2008-08-27 06:02:12 51°20.082 2°36.887 21.2799 0.06495 0.335082 -1.174688
2008-08-27 06:03:12 51°20.085 2°36.885 21.2946 0.06495 0.335098 -1.174688
2008-08-27 06:04:12 51°20.104 2°36.84 21.2914 0.06495 0.33512 -1.174688
2008-08-27 06:05:12 51°20.103 2°36.852 21.3034 0.06495 0.335142 -1.174688
2008-08-27 06:06:12 51°20.097 2°36.893 21.3207 0.06495 0.335169 -1.174688
2008-08-27 06:07:12 51°20.084 2°36.917 21.3436 0.06495 0.335191 -1.174688
2008-08-27 06:08:12 51°20.071 2°36.933 21.344 0.06495 0.335197 -1.174688
2008-08-27 06:09:12 51°20.058 2°36.946 21.3408 0.06495 0.335219 -1.174688
2008-08-27 06:10:12 51°20.005 2°36.921 21.3441 0.06495 0.335246 -1.174688
2008-08-27 06:11:12 51°20.011 2°36.803 21.3645 0.06495 0.335274 -1.174688
2008-08-27 06:12:12 51°20.045 2°36.784 21.3765 0.06495 0.335246 -1.174688
2008-08-27 06:13:12 51°20.064 2°36.796 21.3972 0.064847 0.334711 -1.174688
2008-08-27 06:14:12 51°20.07 2°36.807 21.3981 0.064847 0.334738 -1.174688
2008-08-27 06:15:12 51°20.072 2°36.814 21.4073 0.064847 0.334743 -1.174688
2008-08-27 06:16:12 51°20.073 2°36.821 21.4218 0.064847 0.334765 -1.174688
2008-08-27 06:17:12 51°20.075 2°36.829 21.4402 0.064847 0.334782 -1.174688
2008-08-27 06:18:12 51°20.076 2°36.838 21.4355 0.064847 0.334804 -1.174688
2008-08-27 06:19:12 51°20.076 2°36.847 21.4451 0.064847 0.33482 -1.174688
2008-08-27 06:20:12 51°20.077 2°36.858 21.4763 0.064847 0.334836 -1.174688
2008-08-27 06:21:12 51°20.08 2°36.868 21.4758 0.064847 0.334875 -1.174688
2008-08-27 06:22:12 51°20.084 2°36.876 21.4896 0.064847 0.334902 -1.174688
2008-08-27 06:23:12 51°20.085 2°36.883 21.4831 0.064847 0.334924 -1.174688
2008-08-27 06:24:12 51°20.086 2°36.893 21.4955 0.064847 0.334957 -1.174688
2008-08-27 06:25:12 51°20.088 2°36.904 21.5146 0.064847 0.33499 -1.174688
2008-08-27 06:26:12 51°20.092 2°36.918 21.5262 0.064847 0.335017 -1.174688
2008-08-27 06:27:12 51°20.098 2°36.93 21.5154 0.064847 0.33505 -1.174688
2008-08-27 06:28:12 51°20.101 2°36.94 21.5453 0.064847 0.335083 -1.174688
2008-08-27 06:29:12 51°20.137 2°36.989 21.5267 0.064847 0.335127 -1.174688
2008-08-27 06:30:12 51°20.081 2°37.082 21.5236 0.064847 0.335171 -1.174688
2008-08-27 06:31:12 51°20.028 2°36.987 21.5496 0.064744 0.334618 -1.174688
2008-08-27 06:32:12 51°20.067 2°36.926 21.5892 0.064744 0.33464 -1.139864
2008-08-27 06:33:12 51°20.095 2°36.891 21.5998 0.064744 0.334673 -1.139864
2008-08-27 06:34:12 51°20.118 2°36.87 21.6035 0.064744 0.334717 -1.174688
2008-08-27 06:35:12 51°20.137 2°36.857 21.6099 0.064744 0.334728 -1.139864
2008-08-27 06:36:12 51°20.148 2°36.856 21.6317 0.064744 0.334755 -1.174688
2008-08-27 06:37:12 51°20.153 2°36.86 21.63 0.064744 0.334777 -1.139864
2008-08-27 06:38:12 51°20.156 2°36.873 21.6421 0.064744 0.334799 -1.174688
2008-08-27 06:39:12 51°20.157 2°36.89 21.6327 0.064744 0.334837 -1.174688
2008-08-27 06:40:12 51°20.181 2°36.908 21.6462 0.064744 0.334859 -1.174688
2008-08-27 06:41:12 51°20.199 2°36.989 21.6536 0.064744 0.334914 -1.174688
2008-08-27 06:42:12 51°20.188 2°37.045 21.6533 0.064744 0.334931 -1.139864
2008-08-27 06:43:12 51°20.177 2°37.073 21.6678 0.064744 0.334952 -1.174688
2008-08-27 06:44:12 51°20.168 2°37.097 21.6617 0.064744 0.334985 -1.174688
2008-08-27 06:45:12 51°20.16 2°37.119 21.6745 0.064641 0.33446 -1.174688
2008-08-27 06:46:12 51°20.155 2°37.143 21.6902 0.064641 0.334493 -1.174688
2008-08-27 06:47:12 51°20.149 2°37.168 21.6965 0.064641 0.334514 -1.174688
2008-08-27 06:48:12 51°20.145 2°37.191 21.7073 0.064641 0.334536 -1.174688
2008-08-27 06:49:12 51°20.142 2°37.215 21.7165 0.064641 0.334564 -1.174688
2008-08-27 06:50:12 51°20.14 2°37.24 21.7253 0.064641 0.334591 -1.174688
2008-08-27 06:51:12 51°20.126 2°37.269 21.7338 0.064641 0.334613 -1.174688
2008-08-27 06:52:12 51°20.084 2°37.263 21.735 0.064641 0.334646 -1.174688
2008-08-27 06:53:12 51°20.062 2°37.224 21.7628 0.064641 0.334663 -1.174688
2008-08-27 06:54:12 51°20.058 2°37.208 21.7594 0.064641 0.334679 -1.139864
2008-08-27 06:55:12 51°20.062 2°37.203 21.7738 0.064641 0.334712 -1.174688
2008-08-27 06:56:12 51°20.069 2°37.211 21.7741 0.064641 0.334734 -1.139864
2008-08-27 06:57:12 51°20.077 2°37.225 21.7932 0.064641 0.334756 -1.139864
2008-08-27 06:58:12 51°20.09 2°37.236 21.7925 0.064641 0.334783 -1.174688
2008-08-27 06:59:12 51°20.105 2°37.233 21.7925 0.064641 0.334805 -1.139864
2008-08-27 07:00:12 51°20.116 2°37.22 21.8087 0.064641 0.334833 -1.174688
2008-08-27 07:01:12 51°20.119 2°37.21 21.8141 0.064641 0.334855 -1.174688
2008-08-27 07:02:12 51°20.122 2°37.215 21.8227 0.064641 0.334888 -1.139864
2008-08-27 07:03:12 51°20.126 2°37.233 21.8334 0.064641 0.334915 -1.174688
2008-08-27 07:04:12 51°20.131 2°37.255 21.844 0.064641 0.334943 -1.174688
2008-08-27 07:05:12 51°20.142 2°37.271 21.8556 0.064538 0.334416 -1.174688
2008-08-27 07:06:12 51°20.156 2°37.272 21.8488 0.064538 0.334444 -1.174688
2008-08-27 07:07:12 51°20.166 2°37.26 21.8547 0.064538 0.334466 -1.174688
2008-08-27 07:08:12 51°20.167 2°37.247 21.8777 0.064538 0.334488 -1.139864
2008-08-27 07:09:12 51°20.156 2°37.228 21.8839 0.064538 0.33451 -1.174688
2008-08-27 07:10:12 51°20.141 2°37.205 21.8917 0.064538 0.334548 -1.174688
2008-08-27 07:11:12 51°20.13 2°37.191 21.8972 0.064538 0.334576 -1.174688
2008-08-27 07:12:12 51°20.122 2°37.196 21.8939 0.064538 0.334609 -1.174688
2008-08-27 07:13:12 51°20.117 2°37.218 21.9079 0.064538 0.334636 -1.174688
2008-08-27 07:14:12 51°20.113 2°37.252 21.9234 0.064538 0.334664 -1.174688
2008-08-27 07:15:12 51°20.114 2°37.286 21.9247 0.064538 0.334702 -1.174688
2008-08-27 07:16:12 51°20.114 2°37.32 21.9375 0.064538 0.334735 -1.174688
2008-08-27 07:17:12 51°20.115 2°37.353 21.9468 0.064538 0.334768 -1.174688
2008-08-27 07:18:12 51°20.116 2°37.385 21.9439 0.064538 0.334801 -1.174688
2008-08-27 07:19:12 51°20.103 2°37.422 21.9603 0.064538 0.334834 -1.174688
2008-08-27 07:20:12 51°20.077 2°37.447 21.9658 0.064538 0.334867 -1.174688
2008-08-27 07:21:12 51°20.045 2°37.447 21.9685 0.064436 0.334335 -1.139864
2008-08-27 07:22:12 51°20 2°37.425 21.9736 0.064436 0.334362 -1.174688
2008-08-27 07:23:12 51°19.959 2°37.407 21.9833 0.064436 0.334384 -1.174688
2008-08-27 07:24:12 51°19.925 2°37.384 21.9881 0.064436 0.334412 -1.174688
2008-08-27 07:25:12 51°19.913 2°37.289 22.0013 0.064436 0.334461 -1.174688
2008-08-27 07:26:12 51°19.939 2°37.221 22.0078 0.064436 0.3345 -1.139864
2008-08-27 07:27:12 51°19.971 2°37.187 22.0176 0.064436 0.334533 -1.174688
2008-08-27 07:28:12 51°19.992 2°37.184 22.0155 0.064436 0.334566 -1.174688
2008-08-27 07:29:12 51°20.005 2°37.2 22.0208 0.064436 0.334593 -1.174688
2008-08-27 07:30:12 51°20.016 2°37.231 22.0357 0.064436 0.334632 -1.174688
2008-08-27 07:31:12 51°20.025 2°37.267 22.04 0.064436 0.334671 -1.174688
2008-08-27 07:32:12 51°20.031 2°37.305 22.0472 0.064436 0.334698 -1.174688
2008-08-27 07:33:12 51°20.037 2°37.342 22.0555 0.064436 0.334731 -1.174688
2008-08-27 07:34:12 51°20.07 2°37.33 22.055 0.064436 0.334786 -1.139864
2008-08-27 07:35:12 51°20.068 2°37.288 22.0509 0.064436 0.334803 -1.174688
2008-08-27 07:36:12 51°20.043 2°37.298 22.0671 0.064333 0.334286 -1.174688
2008-08-27 07:37:13 51°20.023 2°37.341 22.0728 0.064333 0.334308 -1.174688
2008-08-27 07:38:12 51°20.012 2°37.384 22.0789 0.064333 0.334347 -1.174688
2008-08-27 07:39:12 51°20.004 2°37.424 22.0838 0.064333 0.33438 -1.174688
2008-08-27 07:40:12 51°19.975 2°37.442 22.0828 0.064333 0.334407 -1.174688
2008-08-27 07:41:12 51°19.964 2°37.391 22.1055 0.064333 0.334446 -1.174688
2008-08-27 07:42:12 51°19.985 2°37.359 22.0984 0.064333 0.334473 -1.174688
2008-08-27 07:43:12 51°20.005 2°37.349 22.1027 0.064333 0.334512 -1.174688
2008-08-27 07:44:12 51°20.02 2°37.352 22.1209 0.064333 0.33454 -1.174688
2008-08-27 07:45:12 51°20.035 2°37.364 22.1273 0.064333 0.334556 -1.174688
2008-08-27 07:46:12 51°20.049 2°37.38 22.136 0.064333 0.334595 -1.174688
2008-08-27 07:47:12 51°20.065 2°37.403 22.1283 0.064333 0.334617 -1.174688
2008-08-27 07:48:12 51°20.081 2°37.431 22.1439 0.064333 0.334634 -1.174688
2008-08-27 07:49:12 51°20.107 2°37.44 22.153 0.064333 0.334667 -1.174688
2008-08-27 07:50:12 51°20.139 2°37.427 22.1641 0.064333 0.334689 -1.174688
2008-08-27 07:51:12 51°20.184 2°37.416 22.1357 0.064333 0.334722 -1.174688
2008-08-27 07:52:12 51°20.239 2°37.45 22.1562 0.064333 0.334761 -1.174688
2008-08-27 07:53:13 51°20.287 2°37.496 22.1784 0.06423 0.334248 -1.174688
2008-08-27 07:54:12 51°20.321 2°37.533 22.1809 0.06423 0.334282 -1.174688
2008-08-27 07:55:13 51°20.346 2°37.569 22.1958 0.06423 0.33432 -1.174688
2008-08-27 07:56:12 51°20.363 2°37.601 22.2017 0.06423 0.334359 -1.174688
2008-08-27 07:57:12 51°20.377 2°37.638 22.2047 0.06423 0.334398 -1.174688
2008-08-27 07:58:13 51°20.4 2°37.666 22.2238 0.06423 0.334442 -1.174688
2008-08-27 07:59:12 51°20.421 2°37.623 22.2277 0.06423 0.334486 -1.174688
2008-08-27 08:00:13 51°20.382 2°37.547 22.2307 0.06423 0.334497 -1.174688
2008-08-27 08:01:12 51°20.311 2°37.413 22.2505 0.06423 0.334536 -1.174688
2008-08-27 08:02:12 51°20.263 2°37.312 22.2619 0.06423 0.334597 -1.139864
2008-08-27 08:03:12 51°20.24 2°37.258 22.2759 0.06423 0.334647 -1.174688
2008-08-27 08:04:12 51°20.221 2°37.228 22.294 0.06423 0.334691 -1.174688
2008-08-27 08:05:13 51°20.206 2°37.204 22.3074 0.06423 0.334746 -1.174688
2008-08-27 08:06:12 51°20.226 2°37.163 22.325 0.064127 0.334261 -1.174688
2008-08-27 08:07:13 51°20.256 2°37.178 22.3413 0.064127 0.334294 -1.174688
2008-08-27 08:08:12 51°20.28 2°37.205 22.3596 0.064127 0.334333 -1.174688
2008-08-27 08:09:13 51°20.299 2°37.236 22.3912 0.064127 0.334372 -1.174688
2008-08-27 08:10:12 51°20.316 2°37.269 22.4021 0.064127 0.334411 -1.174688
2008-08-27 08:11:13 51°20.34 2°37.285 22.4427 0.064127 0.334444 -1.174688
2008-08-27 08:12:12 51°20.394 2°37.156 22.4455 0.064127 0.334449 -1.174688
2008-08-27 08:13:13 51°20.479 2°36.908 22.454 0.064127 0.334449 -1.174688
2008-08-27 08:14:12 51°20.565 2°36.655 22.4678 0.064127 0.33446 -1.174688
2008-08-27 08:15:12 51°20.653 2°36.399 22.4866 0.064127 0.334471 -1.174688
2008-08-27 08:16:13 51°20.722 2°36.128 22.5026 0.064127 0.334471 -1.174688
2008-08-27 08:17:12 51°20.777 2°35.859 22.5188 0.064127 0.334466 -1.174688
2008-08-27 08:18:13 51°20.84 2°35.581 22.5382 0.064127 0.334471 -1.174688
2008-08-27 08:19:12 51°20.9 2°35.311 22.5586 0.064127 0.334471 -1.174688
2008-08-27 08:20:12 51°20.956 2°35.032 22.5766 0.064127 0.334477 -1.174688
2008-08-27 08:21:12 51°21.007 2°34.752 22.5955 0.064127 0.334494 -1.174688
2008-08-27 08:22:12 51°21.055 2°34.473 22.6143 0.064127 0.33451 -1.174688
2008-08-27 08:23:12 51°21.105 2°34.195 22.6329 0.064127 0.334527 -1.174688
2008-08-27 08:24:12 51°21.151 2°33.915 22.6519 0.064127 0.334544 -1.174688
2008-08-27 08:25:13 51°21.199 2°33.629 22.672 0.064127 0.334555 -1.174688
2008-08-27 08:26:12 51°21.27 2°33.369 22.696 0.064127 0.334566 -1.174688
2008-08-27 08:27:13 51°21.437 2°33.21 22.7164 0.064127 0.334599 -1.174688
2008-08-27 08:28:12 51°21.629 2°33.132 22.7375 0.064127 0.33461 -1.174688
2008-08-27 08:29:13 51°21.835 2°33.095 22.5622 0.064127 0.334616 -1.070216
2008-08-27 08:30:12 51°22.035 2°33.06 22.4234 0.064127 0.334627 -1.174688
2008-08-27 08:31:13 51°22.24 2°33.015 22.422 0.064127 0.334632 -1.209513
2008-08-27 08:32:13 51°22.406 2°32.869 22.4678 0.064127 0.334627 -1.209513
2008-08-27 08:33:12 51°22.533 2°32.654 22.4738 0.064127 0.334616 -1.209513
2008-08-27 08:34:13 51°22.665 2°32.433 22.492 0.064127 0.334599 -1.209513
2008-08-27 08:35:12 51°22.794 2°32.218 22.5066 0.064127 0.334582 -1.209513
2008-08-27 08:36:13 51°22.927 2°31.995 22.5191 0.064127 0.33456 -1.209513
2008-08-27 08:37:12 51°23.057 2°31.783 22.5567 0.064127 0.334538 -1.209513
2008-08-27 08:38:12 51°23.195 2°31.573 22.5547 0.064127 0.334516 -1.209513
2008-08-27 08:39:13 51°23.334 2°31.36 22.5645 0.064127 0.334494 -1.209513
2008-08-27 08:40:12 51°23.47 2°31.152 22.5778 0.064127 0.334477 -1.209513
2008-08-27 08:41:13 51°23.603 2°30.923 22.5761 0.064127 0.33446 -1.209513
2008-08-27 08:42:12 51°23.71 2°30.681 22.5896 0.064127 0.334433 -1.209513
2008-08-27 08:43:13 51°23.82 2°30.427 22.6158 0.064127 0.334405 -1.209513
2008-08-27 08:44:12 51°23.928 2°30.182 22.6322 0.064127 0.334372 -1.209513
2008-08-27 08:45:13 51°24.039 2°29.93 22.6202 0.064127 0.334339 -1.244337
2008-08-27 08:46:12 51°24.149 2°29.687 22.6218 0.064127 0.3343 -1.209513
2008-08-27 08:47:13 51°24.265 2°29.437 22.6392 0.06423 0.334807 -1.209513
2008-08-27 08:48:13 51°24.378 2°29.236 22.6365 0.06423 0.334769 -1.209513
2008-08-27 08:49:13 51°24.464 2°29.11 22.6452 0.06423 0.33473 -1.209513
2008-08-27 08:50:13 51°24.531 2°29.001 22.6485 0.06423 0.334691 -1.244337
2008-08-27 08:51:12 51°24.579 2°28.893 22.6649 0.06423 0.334652 -1.209513
2008-08-27 08:52:13 51°24.624 2°28.808 22.6703 0.06423 0.334641 -1.209513
2008-08-27 08:53:12 51°24.655 2°28.779 22.6755 0.06423 0.33463 -1.244337
2008-08-27 08:54:13 51°24.678 2°28.755 22.6982 0.06423 0.334619 -1.244337
2008-08-27 08:55:13 51°24.698 2°28.735 22.6874 0.06423 0.334619 -1.209513
2008-08-27 08:56:12 51°24.722 2°28.725 22.7079 0.06423 0.334625 -1.244337
2008-08-27 08:57:13 51°24.751 2°28.689 22.714 0.06423 0.33463 -1.244337
2008-08-27 08:58:12 51°24.773 2°28.705 22.7072 0.06423 0.33463 -1.244337
2008-08-27 08:59:13 51°24.79 2°28.745 22.7132 0.06423 0.33463 -1.244337
2008-08-27 09:00:12 51°24.808 2°28.785 22.7203 0.06423 0.334636 -1.244337
2008-08-27 09:01:13 51°24.827 2°28.827 22.7203 0.06423 0.334641 -1.209513
2008-08-27 09:02:12 51°24.86 2°28.834 22.7245 0.06423 0.334636 -1.209513
2008-08-27 09:03:13 51°24.874 2°28.787 22.722 0.06423 0.334613 -1.209513
2008-08-27 09:04:13 51°24.839 2°28.712 22.7319 0.06423 0.334602 -1.244337
2008-08-27 09:05:13 51°24.799 2°28.614 22.7351 0.06423 0.334608 -1.244337
2008-08-27 09:06:13 51°24.758 2°28.6 22.7413 0.06423 0.334608 -1.244337
2008-08-27 09:07:13 51°24.74 2°28.639 22.7542 0.06423 0.334591 -1.244337
2008-08-27 09:08:13 51°24.75 2°28.681 22.7577 0.06423 0.334591 -1.244337
2008-08-27 09:09:12 51°24.77 2°28.718 22.7553 0.06423 0.334591 -1.244337
2008-08-27 09:10:13 51°24.792 2°28.753 22.7612 0.06423 0.33458 -1.244337
2008-08-27 09:11:12 51°24.81 2°28.79 22.7706 0.06423 0.33458 -1.244337
2008-08-27 09:12:13 51°24.821 2°28.84 22.7822 0.06423 0.334569 -1.244337
2008-08-27 09:13:13 51°24.797 2°28.891 22.7794 0.06423 0.334586 -1.244337
2008-08-27 09:14:12 51°24.769 2°28.874 22.7807 0.06423 0.334586 -1.244337
2008-08-27 09:15:13 51°24.733 2°28.805 22.7886 0.06423 0.334597 -1.244337
2008-08-27 09:16:12 51°24.718 2°28.728 22.7857 0.06423 0.334625 -1.244337
2008-08-27 09:17:13 51°24.74 2°28.708 22.784 0.06423 0.334641 -1.244337
2008-08-27 09:18:12 51°24.766 2°28.718 22.7948 0.06423 0.334641 -1.244337
2008-08-27 09:19:13 51°24.79 2°28.744 22.7969 0.06423 0.334663 -1.244337
2008-08-27 09:20:13 51°24.812 2°28.779 22.7965 0.06423 0.33468 -1.244337
2008-08-27 09:21:13 51°24.832 2°28.82 22.7968 0.06423 0.334691 -1.244337
2008-08-27 09:22:13 51°24.86 2°28.843 22.7982 0.06423 0.334719 -1.244337
2008-08-27 09:23:13 51°24.881 2°28.808 22.8019 0.06423 0.334735 -1.244337
2008-08-27 09:24:13 51°24.859 2°28.729 22.815 0.06423 0.334746 -1.244337
2008-08-27 09:25:13 51°24.813 2°28.644 22.8141 0.06423 0.334763 -1.244337
2008-08-27 09:26:13 51°24.778 2°28.632 22.817 0.06423 0.334796 -1.244337
2008-08-27 09:27:13 51°24.765 2°28.672 22.8198 0.06423 0.334802 -1.244337
2008-08-27 09:28:13 51°24.771 2°28.717 22.8241 0.06423 0.33483 -1.244337
2008-08-27 09:29:13 51°24.79 2°28.759 22.8266 0.06423 0.334857 -1.244337
2008-08-27 09:30:13 51°24.808 2°28.799 22.8329 0.06423 0.334879 -1.209513
2008-08-27 09:31:13 51°24.814 2°28.856 22.8363 0.06423 0.334907 -1.209513
2008-08-27 09:32:12 51°24.78 2°28.892 22.84 0.06423 0.334952 -1.244337
2008-08-27 09:33:13 51°24.757 2°28.846 22.8405 0.06423 0.334979 -1.244337
2008-08-27 09:34:12 51°24.725 2°28.776 22.8456 0.06423 0.335013 -1.244337
2008-08-27 09:35:13 51°24.714 2°28.73 22.8448 0.064127 0.334483 -1.244337
2008-08-27 09:36:13 51°24.728 2°28.711 22.8525 0.064127 0.334516 -1.244337
2008-08-27 09:37:13 51°24.749 2°28.715 22.8485 0.064127 0.334544 -1.244337
2008-08-27 09:38:13 51°24.771 2°28.727 22.8532 0.064127 0.334577 -1.244337
2008-08-27 09:39:13 51°24.794 2°28.752 22.8579 0.064127 0.334593 -1.244337
2008-08-27 09:40:13 51°24.816 2°28.789 22.8607 0.064127 0.334621 -1.244337
2008-08-27 09:41:13 51°24.844 2°28.814 22.8594 0.064127 0.334655 -1.244337
2008-08-27 09:42:13 51°24.867 2°28.786 22.8602 0.064127 0.334677 -1.244337
2008-08-27 09:43:13 51°24.842 2°28.773 22.8672 0.064127 0.334699 -1.244337
2008-08-27 09:44:13 51°24.813 2°28.752 22.8681 0.064127 0.334727 -1.244337
2008-08-27 09:45:13 51°24.799 2°28.708 22.8707 0.064127 0.334771 -1.244337
2008-08-27 09:46:13 51°24.773 2°28.671 22.8727 0.064127 0.334799 -1.244337
2008-08-27 09:47:13 51°24.763 2°28.685 22.8738 0.064127 0.334827 -1.244337
2008-08-27 09:48:13 51°24.767 2°28.724 22.8775 0.064127 0.334843 -1.244337
2008-08-27 09:49:13 51°24.782 2°28.772 22.8783 0.064127 0.334877 -1.244337
2008-08-27 09:50:12 51°24.797 2°28.818 22.8817 0.064127 0.334916 -1.244337
2008-08-27 09:51:13 51°24.797 2°28.874 22.8879 0.064127 0.334949 -1.244337
2008-08-27 09:52:13 51°24.771 2°28.897 22.8887 0.064024 0.33444 -1.244337
2008-08-27 09:53:13 51°24.754 2°28.858 22.8892 0.064024 0.334474 -1.244337
2008-08-27 09:54:13 51°24.732 2°28.794 22.8911 0.064024 0.334513 -1.244337
2008-08-27 09:55:13 51°24.709 2°28.724 22.8948 0.064024 0.334552 -1.244337
2008-08-27 09:56:13 51°24.725 2°28.686 22.8957 0.064024 0.334596 -1.244337
2008-08-27 09:57:13 51°24.751 2°28.685 22.8977 0.064024 0.334635 -1.244337
2008-08-27 09:58:13 51°24.776 2°28.714 22.8975 0.064024 0.334668 -1.244337
2008-08-27 09:59:13 51°24.796 2°28.758 22.8995 0.064024 0.334702 -1.244337
2008-08-27 10:00:13 51°24.816 2°28.803 22.9009 0.064024 0.334735 -1.244337
2008-08-27 10:01:13 51°24.848 2°28.836 22.9015 0.064024 0.334791 -1.244337
2008-08-27 10:02:13 51°24.884 2°28.798 22.9034 0.064024 0.334819 -1.244337
2008-08-27 10:03:13 51°24.863 2°28.737 22.9074 0.064024 0.334841 -1.244337
2008-08-27 10:04:13 51°24.806 2°28.642 22.9101 0.064024 0.33488 -1.244337
2008-08-27 10:05:13 51°24.762 2°28.61 22.9131 0.063921 0.334376 -1.244337
2008-08-27 10:06:13 51°24.751 2°28.646 22.9151 0.063921 0.334404 -1.244337
2008-08-27 10:07:13 51°24.763 2°28.694 22.9192 0.063921 0.334443 -1.244337
2008-08-27 10:08:13 51°24.786 2°28.732 22.9203 0.063921 0.334487 -1.244337
2008-08-27 10:09:13 51°24.806 2°28.772 22.9236 0.063921 0.334521 -1.244337
2008-08-27 10:10:13 51°24.824 2°28.818 22.9268 0.063921 0.334571 -1.244337
2008-08-27 10:11:13 51°24.808 2°28.877 22.9267 0.063921 0.334621 -1.244337
2008-08-27 10:12:13 51°24.775 2°28.866 22.9303 0.063921 0.33466 -1.244337
2008-08-27 10:13:13 51°24.734 2°28.775 22.9306 0.063921 0.334705 -1.244337
2008-08-27 10:14:13 51°24.704 2°28.719 22.9323 0.063921 0.334733 -1.244337
2008-08-27 10:15:13 51°24.719 2°28.695 22.9338 0.063921 0.334789 -1.244337
2008-08-27 10:16:13 51°24.75 2°28.693 22.9351 0.063921 0.334816 -1.244337
2008-08-27 10:17:13 51°24.774 2°28.714 22.9395 0.063818 0.33429 -1.244337
2008-08-27 10:18:13 51°24.796 2°28.757 22.9395 0.063818 0.33429 -1.244337
2008-08-27 10:19:13 51°24.816 2°28.803 22.9406 0.063818 0.334295 -1.244337
2008-08-27 10:20:13 51°24.846 2°28.84 22.9422 0.063818 0.334306 -1.244337
2008-08-27 10:21:13 51°24.886 2°28.811 22.9444 0.063818 0.334318 -1.244337
2008-08-27 10:22:13 51°24.873 2°28.752 22.9463 0.063818 0.33429 -1.244337
2008-08-27 10:23:13 51°24.812 2°28.662 22.947 0.063818 0.33429 -1.244337
2008-08-27 10:24:13 51°24.78 2°28.646 22.9489 0.063818 0.334301 -1.244337
2008-08-27 10:25:13 51°24.778 2°28.688 22.952 0.063818 0.334318 -1.244337
2008-08-27 10:26:13 51°24.785 2°28.734 22.9547 0.063818 0.334323 -1.244337
2008-08-27 10:27:13 51°24.798 2°28.782 22.9549 0.063818 0.334334 -1.244337
2008-08-27 10:28:13 51°24.814 2°28.83 22.9579 0.063818 0.334351 -1.244337
2008-08-27 10:29:13 51°24.829 2°28.878 22.9612 0.063818 0.334373 -1.209513
2008-08-27 10:30:13 51°24.813 2°28.926 22.9617 0.063818 0.334396 -1.244337
2008-08-27 10:31:13 51°24.787 2°28.918 22.965 0.063818 0.334423 -1.244337
2008-08-27 10:32:13 51°24.75 2°28.838 22.9654 0.063818 0.334451 -1.209513
2008-08-27 10:33:13 51°24.713 2°28.734 22.9656 0.063818 0.334474 -1.244337
2008-08-27 10:34:13 51°24.728 2°28.676 22.9669 0.063818 0.334496 -1.209513
2008-08-27 10:35:13 51°24.757 2°28.668 22.9675 0.063818 0.334518 -1.244337
2008-08-27 10:36:13 51°24.776 2°28.706 22.9716 0.063818 0.334535 -1.209513
2008-08-27 10:37:13 51°24.789 2°28.754 22.9701 0.063818 0.334546 -1.244337
2008-08-27 10:38:13 51°24.806 2°28.798 22.9736 0.063818 0.334552 -1.244337
2008-08-27 10:39:13 51°24.825 2°28.841 22.9751 0.063818 0.334546 -1.209513
2008-08-27 10:40:13 51°24.864 2°28.847 22.9774 0.063818 0.334552 -1.244337
2008-08-27 10:41:13 51°24.876 2°28.803 22.9779 0.063818 0.33453 -1.244337
2008-08-27 10:42:13 51°24.856 2°28.749 22.9789 0.063818 0.334518 -1.244337
2008-08-27 10:43:13 51°24.825 2°28.655 22.9809 0.063818 0.334518 -1.244337
2008-08-27 10:44:13 51°24.794 2°28.615 22.9805 0.063818 0.334524 -1.244337
2008-08-27 10:45:13 51°24.786 2°28.646 22.9837 0.063818 0.334507 -1.244337
2008-08-27 10:46:13 51°24.781 2°28.686 22.9904 0.063818 0.334496 -1.244337
2008-08-27 10:47:13 51°24.782 2°28.728 22.9932 0.063818 0.334502 -1.244337
2008-08-27 10:48:13 51°24.792 2°28.773 22.992 0.063818 0.334507 -1.209513
2008-08-27 10:49:13 51°24.807 2°28.819 22.9965 0.063818 0.334524 -1.244337
2008-08-27 10:50:13 51°24.806 2°28.869 22.9963 0.063818 0.33453 -1.244337
2008-08-27 10:51:13 51°24.786 2°28.891 22.9946 0.063818 0.334552 -1.209513
2008-08-27 10:52:13 51°24.771 2°28.852 23.0002 0.063818 0.33458 -1.209513
2008-08-27 10:53:13 51°24.723 2°28.768 22.9989 0.063818 0.334613 -1.244337
2008-08-27 10:54:13 51°24.716 2°28.687 22.9991 0.063818 0.334641 -1.209513
2008-08-27 10:55:13 51°24.739 2°28.671 23.0007 0.063818 0.334669 -1.244337
2008-08-27 10:56:13 51°24.761 2°28.699 23.0044 0.063818 0.33468 -1.244337
2008-08-27 10:57:13 51°24.783 2°28.736 23.0052 0.063818 0.334719 -1.244337
2008-08-27 10:58:13 51°24.804 2°28.777 23.003 0.063818 0.334731 -1.244337
2008-08-27 10:59:13 51°24.824 2°28.818 23.0058 0.063818 0.334753 -1.244337
2008-08-27 11:00:13 51°24.843 2°28.86 23.0078 0.063818 0.334787 -1.209513
2008-08-27 11:01:13 51°24.864 2°28.899 23.0049 0.063818 0.334815 -1.244337
2008-08-27 11:02:13 51°24.922 2°28.954 23.0044 0.063715 0.334281 -1.209513
2008-08-27 11:03:13 51°24.918 2°29.096 23.0026 0.063715 0.334343 -1.244337
2008-08-27 11:04:13 51°24.824 2°29.24 23.0069 0.063715 0.334337 -1.244337
2008-08-27 11:05:13 51°24.696 2°29.427 23.0046 0.063715 0.334371 -1.244337
2008-08-27 11:06:13 51°24.55 2°29.642 23.0053 0.063715 0.33441 -1.244337
2008-08-27 11:07:13 51°24.401 2°29.853 23.0092 0.063715 0.334438 -1.244337
2008-08-27 11:08:13 51°24.254 2°30.067 23.0119 0.063715 0.334466 -1.244337
2008-08-27 11:09:13 51°24.106 2°30.279 23.0119 0.063715 0.334494 -1.209513
2008-08-27 11:10:13 51°23.957 2°30.49 23.0097 0.063715 0.334516 -1.209513
2008-08-27 11:11:13 51°23.808 2°30.699 23.0131 0.063715 0.334533 -1.209513
2008-08-27 11:12:13 51°23.66 2°30.911 23.0137 0.063715 0.33455 -1.209513
2008-08-27 11:13:13 51°23.511 2°31.12 23.0198 0.063715 0.334566 -1.209513
2008-08-27 11:14:13 51°23.36 2°31.333 23.0175 0.063715 0.334583 -1.209513
2008-08-27 11:15:13 51°23.215 2°31.561 23.0194 0.063715 0.334589 -1.209513
2008-08-27 11:16:13 51°23.071 2°31.794 23.0243 0.063715 0.3346 -1.209513
2008-08-27 11:17:13 51°22.926 2°32.024 23.0237 0.063715 0.334606 -1.244337
2008-08-27 11:18:13 51°22.78 2°32.251 23.0341 0.063715 0.334617 -1.209513
2008-08-27 11:19:13 51°22.632 2°32.474 23.0314 0.063715 0.334628 -1.209513
2008-08-27 11:20:13 51°22.484 2°32.699 23.032 0.063715 0.33465 -1.209513
2008-08-27 11:21:13 51°22.335 2°32.918 23.0334 0.063715 0.334667 -1.209513
2008-08-27 11:22:13 51°22.188 2°33.136 23.042 0.063715 0.334695 -1.209513
2008-08-27 11:23:13 51°22.038 2°33.352 23.0429 0.063612 0.334161 -1.209513
2008-08-27 11:24:13 51°21.892 2°33.57 23.0379 0.063612 0.334195 -1.244337
2008-08-27 11:25:13 51°21.747 2°33.789 23.0452 0.063612 0.334212 -1.209513
2008-08-27 11:26:13 51°21.602 2°34.009 23.048 0.063612 0.334251 -1.244337
2008-08-27 11:27:13 51°21.455 2°34.226 23.0573 0.063612 0.334279 -1.244337
2008-08-27 11:28:13 51°21.309 2°34.448 23.0558 0.063612 0.33429 -1.244337
2008-08-27 11:29:13 51°21.165 2°34.671 23.0523 0.063612 0.334318 -1.209513
2008-08-27 11:30:13 51°21.021 2°34.893 23.0547 0.063612 0.334363 -1.209513
2008-08-27 11:31:13 51°20.895 2°35.148 23.0702 0.063612 0.33438 -1.209513
2008-08-27 11:32:13 51°20.771 2°35.406 23.0651 0.063612 0.334402 -1.209513
2008-08-27 11:33:13 51°20.637 2°35.646 23.0691 0.063612 0.334441 -1.244337
2008-08-27 11:34:13 51°20.498 2°35.884 23.075 0.063612 0.334453 -1.209513
2008-08-27 11:35:13 51°20.36 2°36.123 23.0778 0.063612 0.334486 -1.209513
2008-08-27 11:36:13 51°20.219 2°36.358 23.0885 0.063612 0.33452 -1.209513
2008-08-27 11:37:13 51°20.098 2°36.568 23.0835 0.063612 0.334548 -1.244337
2008-08-27 11:38:13 51°20.041 2°36.668 23.0797 0.063612 0.334576 -1.209513
2008-08-27 11:39:13 51°20.026 2°36.708 23.0879 0.063612 0.334604 -1.209513
2008-08-27 11:40:13 51°20.036 2°36.74 23.0885 0.06351 0.334086 -1.209513
2008-08-27 11:41:13 51°20.048 2°36.773 23.085 0.06351 0.33412 -1.209513
2008-08-27 11:42:13 51°20.061 2°36.805 23.0913 0.06351 0.334148 -1.209513
2008-08-27 11:43:13 51°20.073 2°36.839 23.0906 0.06351 0.334187 -1.209513
2008-08-27 11:44:13 51°20.08 2°36.875 23.0988 0.06351 0.334226 -1.209513
2008-08-27 11:45:13 51°20.092 2°36.905 23.101 0.06351 0.334266 -1.209513
2008-08-27 11:46:13 51°20.108 2°36.934 23.0982 0.06351 0.334316 -1.244337
2008-08-27 11:47:13 51°20.123 2°36.965 23.0978 0.06351 0.33435 -1.209513
2008-08-27 11:48:13 51°20.135 2°36.998 23.1091 0.06351 0.3344 -1.209513
2008-08-27 11:49:13 51°20.147 2°37.029 23.108 0.06351 0.33444 -1.244337
2008-08-27 11:50:13 51°20.159 2°37.06 23.1105 0.06351 0.334485 -1.209513
2008-08-27 11:51:13 51°20.171 2°37.091 23.1119 0.06351 0.334513 -1.209513
2008-08-27 11:52:13 51°20.182 2°37.122 23.1109 0.06351 0.334524 -1.209513
2008-08-27 11:53:13 51°20.195 2°37.154 23.1154 0.06351 0.334535 -1.244337
2008-08-27 11:54:13 51°20.207 2°37.186 23.1199 0.063407 0.333989 -1.209513
2008-08-27 11:55:13 51°20.22 2°37.217 23.1194 0.063407 0.333983 -1.244337
2008-08-27 11:56:13 51°20.234 2°37.247 23.1201 0.063407 0.333983 -1.209513
2008-08-27 11:57:13 51°20.247 2°37.275 23.126 0.063407 0.333989 -1.209513
2008-08-27 11:58:13 51°20.261 2°37.304 23.13 0.063407 0.333994 -1.209513
2008-08-27 11:59:13 51°20.274 2°37.334 23.1268 0.063407 0.333994 -1.209513
2008-08-27 12:00:13 51°20.286 2°37.364 23.1288 0.063407 0.333994 -1.209513
2008-08-27 12:01:13 51°20.299 2°37.392 23.1254 0.063407 0.333994 -1.244337
2008-08-27 12:02:13 51°20.312 2°37.421 23.1304 0.063407 0.333994 -1.244337
2008-08-27 12:03:13 51°20.319 2°37.453 23.1303 0.063407 0.333994 -1.209513
2008-08-27 12:04:13 51°20.291 2°37.462 23.1332 0.063407 0.334005 -1.209513
2008-08-27 12:05:13 51°20.271 2°37.405 23.1379 0.063407 0.334 -1.244337
2008-08-27 12:06:13 51°20.247 2°37.315 23.1354 0.063407 0.334 -1.209513
2008-08-27 12:07:13 51°20.213 2°37.219 23.1423 0.063407 0.334005 -1.209513
2008-08-27 12:08:13 51°20.176 2°37.122 23.1397 0.063407 0.334017 -1.209513
2008-08-27 12:09:13 51°20.131 2°37.049 23.1443 0.063407 0.334039 -1.209513
2008-08-27 12:10:13 51°20.102 2°36.989 23.1485 0.063407 0.334056 -1.244337
2008-08-27 12:11:13 51°20.091 2°36.874 23.1483 0.063407 0.334084 -1.244337
2008-08-27 12:12:13 51°20.126 2°36.824 23.1456 0.063407 0.334112 -1.209513
2008-08-27 12:13:13 51°20.165 2°36.815 23.1549 0.063407 0.33414 -1.244337
2008-08-27 12:14:13 51°20.194 2°36.82 23.1551 0.063407 0.334163 -1.209513
2008-08-27 12:15:13 51°20.219 2°36.832 23.1533 0.063407 0.334185 -1.209513
2008-08-27 12:16:13 51°20.239 2°36.848 23.1583 0.063407 0.334202 -1.209513
2008-08-27 12:17:13 51°20.258 2°36.868 23.1563 0.063407 0.33423 -1.244337
2008-08-27 12:18:13 51°20.276 2°36.891 23.1542 0.063407 0.334258 -1.209513
2008-08-27 12:19:13 51°20.292 2°36.915 23.1596 0.063407 0.334286 -1.209513
2008-08-27 12:20:13 51°20.309 2°36.942 23.1565 0.063407 0.334314 -1.209513
2008-08-27 12:21:13 51°20.337 2°36.953 23.1586 0.063407 0.334342 -1.244337
2008-08-27 12:22:13 51°20.364 2°36.907 23.1613 0.063407 0.334382 -1.244337
2008-08-27 12:23:13 51°20.338 2°36.848 23.1641 0.063407 0.334393 -1.209513
2008-08-27 12:24:13 51°20.286 2°36.829 23.168 0.063407 0.334416 -1.209513
2008-08-27 12:25:13 51°20.242 2°36.834 23.1706 0.063407 0.334444 -1.209513
2008-08-27 12:26:13 51°20.221 2°36.849 23.1748 0.063407 0.334472 -1.244337
2008-08-27 12:27:13 51°20.214 2°36.87 23.1774 0.063407 0.334506 -1.244337
2008-08-27 12:28:13 51°20.215 2°36.893 23.1786 0.063407 0.334534 -1.244337
2008-08-27 12:29:13 51°20.221 2°36.92 23.187 0.063304 0.334009 -1.244337
2008-08-27 12:30:13 51°20.232 2°36.948 23.1838 0.063304 0.334026 -1.244337
2008-08-27 12:31:13 51°20.243 2°36.975 23.1821 0.063304 0.334054 -1.209513
2008-08-27 12:32:13 51°20.254 2°37 23.1859 0.063304 0.334071 -1.244337
2008-08-27 12:33:13 51°20.265 2°37.025 23.189 0.063304 0.334099 -1.209513
2008-08-27 12:34:13 51°20.277 2°37.05 23.1922 0.063304 0.334105 -1.209513
2008-08-27 12:35:13 51°20.289 2°37.073 23.1897 0.063304 0.334121 -1.244337
2008-08-27 12:36:13 51°20.3 2°37.096 23.1955 0.063304 0.334133 -1.209513
2008-08-27 12:37:13 51°20.307 2°37.123 23.1908 0.063304 0.334144 -1.209513
2008-08-27 12:38:13 51°20.281 2°37.142 23.1909 0.063304 0.334166 -1.244337
2008-08-27 12:39:13 51°20.266 2°37.149 23.2048 0.063304 0.334172 -1.244337
2008-08-27 12:40:13 51°20.257 2°37.16 23.2056 0.063304 0.334183 -1.244337
2008-08-27 12:41:13 51°20.237 2°37.138 23.2043 0.063304 0.334206 -1.244337
2008-08-27 12:42:13 51°20.207 2°37.096 23.2064 0.063304 0.334245 -1.209513
2008-08-27 12:43:13 51°20.185 2°37.097 23.2067 0.063304 0.334262 -1.244337
2008-08-27 12:44:13 51°20.178 2°37.116 23.2138 0.063304 0.334285 -1.209513
2008-08-27 12:45:13 51°20.178 2°37.138 23.2147 0.063304 0.334313 -1.209513
2008-08-27 12:46:13 51°20.182 2°37.163 23.2177 0.063304 0.334352 -1.209513
2008-08-27 12:47:13 51°20.19 2°37.188 23.223 0.063304 0.334386 -1.209513
2008-08-27 12:48:13 51°20.197 2°37.212 23.2196 0.063304 0.334409 -1.209513
2008-08-27 12:49:13 51°20.206 2°37.238 23.2192 0.063304 0.334437 -1.209513
2008-08-27 12:50:13 51°20.213 2°37.262 23.2159 0.063304 0.334454 -1.244337
2008-08-27 12:51:13 51°20.222 2°37.287 23.2257 0.063304 0.334477 -1.244337
2008-08-27 12:52:13 51°20.231 2°37.31 23.2227 0.063304 0.334493 -1.209513
2008-08-27 12:53:13 51°20.237 2°37.332 23.2255 0.063304 0.334505 -1.244337
2008-08-27 12:54:13 51°20.245 2°37.356 23.2334 0.063304 0.334516 -1.244337
2008-08-27 12:55:13 51°20.235 2°37.38 23.2316 0.063201 0.333968 -1.244337
2008-08-27 12:56:13 51°20.206 2°37.374 23.2314 0.063304 0.334544 -1.244337
2008-08-27 12:57:13 51°20.19 2°37.324 23.2325 0.063201 0.334002 -1.209513
2008-08-27 12:58:13 51°20.182 2°37.246 23.2364 0.063201 0.334018 -1.209513
2008-08-27 12:59:13 51°20.175 2°37.174 23.2339 0.063201 0.334047 -1.244337
2008-08-27 13:00:13 51°20.174 2°37.133 23.2383 0.063201 0.334069 -1.209513
2008-08-27 13:01:13 51°20.18 2°37.117 23.2349 0.063201 0.334092 -1.244337
2008-08-27 13:02:13 51°20.191 2°37.119 23.2417 0.063201 0.33412 -1.209513
2008-08-27 13:03:13 51°20.204 2°37.137 23.2458 0.063201 0.334143 -1.209513
2008-08-27 13:04:13 51°20.212 2°37.16 23.2344 0.063201 0.334165 -1.209513
2008-08-27 13:05:13 51°20.22 2°37.186 23.2451 0.063201 0.334188 -1.244337
2008-08-27 13:06:13 51°20.235 2°37.204 23.2459 0.063201 0.33421 -1.244337
2008-08-27 13:07:13 51°20.268 2°37.192 23.2431 0.063201 0.334233 -1.209513
2008-08-27 13:08:13 51°20.29 2°37.152 23.2455 0.063201 0.33425 -1.244337
2008-08-27 13:09:13 51°20.288 2°37.107 23.2491 0.063201 0.334267 -1.209513
2008-08-27 13:10:13 51°20.265 2°37.067 23.2519 0.063201 0.334289 -1.244337
2008-08-27 13:11:13 51°20.246 2°37.025 23.2513 0.063201 0.334318 -1.244337
2008-08-27 13:12:13 51°20.235 2°36.976 23.2569 0.063201 0.334351 -1.244337
2008-08-27 13:13:13 51°20.234 2°36.921 23.2565 0.063201 0.33438 -1.244337
2008-08-27 13:14:13 51°20.235 2°36.879 23.2592 0.063201 0.334408 -1.209513
2008-08-27 13:15:13 51°20.239 2°36.857 23.2505 0.063201 0.334431 -1.209513
2008-08-27 13:16:13 51°20.244 2°36.844 23.2578 0.063201 0.334453 -1.244337
2008-08-27 13:17:13 51°20.27 2°36.798 23.2585 0.063201 0.33451 -1.244337
2008-08-27 13:18:13 51°20.327 2°36.762 23.2613 0.063201 0.334521 -1.244337
2008-08-27 13:19:13 51°20.387 2°36.709 23.2629 0.063201 0.334544 -1.244337
2008-08-27 13:20:13 51°20.441 2°36.643 23.2552 0.063201 0.334578 -1.244337
2008-08-27 13:21:13 51°20.416 2°36.555 23.2547 0.063201 0.334612 -1.244337
2008-08-27 13:22:13 51°20.355 2°36.608 23.2519 0.063098 0.33404 -1.244337
2008-08-27 13:23:13 51°20.307 2°36.661 23.2577 0.063098 0.334068 -1.209513
2008-08-27 13:24:13 51°20.262 2°36.698 23.2637 0.063098 0.334102 -1.244337
2008-08-27 13:25:12 51°20.235 2°36.72 23.271 0.063098 0.334124 -1.209513
2008-08-27 13:26:12 51°20.222 2°36.74 23.2739 0.063098 0.334147 -1.209513
2008-08-27 13:27:12 51°20.217 2°36.757 23.28 0.063098 0.334164 -1.209513
2008-08-27 13:28:12 51°20.216 2°36.773 23.2868 0.063098 0.334187 -1.209513
2008-08-27 13:29:12 51°20.219 2°36.79 23.295 0.063098 0.334198 -1.209513
2008-08-27 13:30:12 51°20.226 2°36.807 23.3036 0.063098 0.334221 -1.209513
2008-08-27 13:31:12 51°20.233 2°36.824 23.2513 0.063098 0.334232 -1.139864
2008-08-27 13:32:12 51°20.241 2°36.842 23.2584 0.063098 0.334249 -1.174688
2008-08-27 13:33:12 51°20.248 2°36.861 23.2596 0.063098 0.334266 -1.174688
2008-08-27 13:34:12 51°20.241 2°36.925 23.2713 0.063098 0.334288 -1.174688
2008-08-27 13:35:12 51°20.286 2°36.98 23.2571 0.063098 0.334311 -1.174688
2008-08-27 13:36:12 51°20.328 2°36.977 23.2588 0.063098 0.3343 -1.174688
2008-08-27 13:37:13 51°20.354 2°36.974 23.2612 0.063098 0.334311 -1.174688
2008-08-27 13:38:13 51°20.372 2°36.974 23.2658 0.063098 0.334334 -1.174688
2008-08-27 13:39:12 51°20.391 2°36.972 23.2787 0.063098 0.334351 -1.174688
2008-08-27 13:40:13 51°20.424 2°36.946 23.2643 0.063098 0.334368 -1.174688
2008-08-27 13:41:13 51°20.461 2°36.903 23.2719 0.063098 0.33439 -1.174688
2008-08-27 13:42:13 51°20.492 2°36.865 23.2819 0.063098 0.334413 -1.174688
2008-08-27 13:43:12 51°20.514 2°36.848 23.267 0.063098 0.334436 -1.174688
2008-08-27 13:44:12 51°20.531 2°36.845 23.2708 0.063098 0.33447 -1.174688
2008-08-27 13:45:12 51°20.545 2°36.848 23.2731 0.063098 0.334487 -1.174688
2008-08-27 13:46:13 51°20.559 2°36.855 23.2731 0.063098 0.334509 -1.174688
2008-08-27 13:47:13 51°20.618 2°36.895 23.2869 0.063098 0.334572 -1.174688
2008-08-27 13:48:13 51°20.612 2°36.973 23.2715 0.063098 0.334583 -1.174688
2008-08-27 13:49:13 51°20.61 2°36.988 23.2625 0.063098 0.334583 -1.174688
2008-08-27 13:50:13 51°20.609 2°37.002 23.2614 0.063098 0.3346 -1.209513
2008-08-27 13:51:13 51°20.61 2°37.017 23.2629 0.063098 0.334629 -1.174688
2008-08-27 13:52:13 51°20.615 2°37.029 23.2636 0.063098 0.334657 -1.174688
2008-08-27 13:53:13 51°20.62 2°37.04 23.2672 0.062995 0.334135 -1.209513
2008-08-27 13:54:13 51°20.625 2°37.052 23.2668 0.062995 0.334169 -1.209513
2008-08-27 13:55:13 51°20.629 2°37.065 23.2694 0.062995 0.334192 -1.209513
2008-08-27 13:56:13 51°20.598 2°37.121 23.2592 0.062995 0.334243 -1.174688
2008-08-27 13:57:13 51°20.556 2°37.302 23.2776 0.062995 0.334254 -1.209513
2008-08-27 13:58:13 51°20.454 2°37.496 23.2752 0.062995 0.334277 -1.174688
2008-08-27 13:59:13 51°20.319 2°37.713 23.2608 0.062995 0.334311 -1.209513
2008-08-27 14:00:13 51°20.182 2°37.938 23.283 0.062995 0.334316 -1.174688
2008-08-27 14:01:13 51°20.044 2°38.161 23.2637 0.062995 0.334333 -1.209513
2008-08-27 14:02:13 51°19.908 2°38.388 23.2667 0.062995 0.334345 -1.174688
2008-08-27 14:03:13 51°19.775 2°38.617 23.2646 0.062995 0.334339 -1.209513
2008-08-27 14:04:13 51°19.642 2°38.847 23.265 0.062995 0.334362 -1.209513
2008-08-27 14:05:13 51°19.509 2°39.081 23.2675 0.062995 0.334367 -1.209513
2008-08-27 14:06:13 51°19.375 2°39.313 23.2589 0.062995 0.334367 -1.174688
2008-08-27 14:07:13 51°19.243 2°39.547 23.2574 0.062995 0.334367 -1.209513
2008-08-27 14:08:13 51°19.11 2°39.78 23.2594 0.062995 0.334379 -1.174688
2008-08-27 14:09:13 51°18.979 2°40.014 23.272 0.062995 0.334419 -1.209513
2008-08-27 14:10:13 51°18.847 2°40.247 23.2583 0.062995 0.33443 -1.174688
2008-08-27 14:11:13 51°18.711 2°40.479 23.2492 0.062995 0.334464 -1.174688
2008-08-27 14:12:13 51°18.574 2°40.703 23.2712 0.062995 0.334481 -1.209513
2008-08-27 14:13:13 51°18.444 2°40.936 23.2641 0.062995 0.334504 -1.174688
2008-08-27 14:14:13 51°18.323 2°41.183 23.26 0.062995 0.334527 -1.209513
2008-08-27 14:15:13 51°18.205 2°41.434 23.261 0.062995 0.334549 -1.209513
2008-08-27 14:16:13 51°18.085 2°41.685 23.2747 0.062995 0.334572 -1.209513
2008-08-27 14:17:13 51°17.964 2°41.933 23.2581 0.062995 0.334583 -1.244337
2008-08-27 14:18:13 51°17.843 2°42.182 23.2659 0.062995 0.334595 -1.209513
2008-08-27 14:19:13 51°17.72 2°42.431 23.2515 0.062995 0.3346 -1.209513
2008-08-27 14:20:13 51°17.599 2°42.68 23.2623 0.062995 0.3346 -1.209513
2008-08-27 14:21:13 51°17.478 2°42.925 23.2653 0.062995 0.334606 -1.209513
2008-08-27 14:22:13 51°17.363 2°43.164 23.2694 0.062892 0.334038 -1.244337
2008-08-27 14:23:13 51°17.243 2°43.407 23.268 0.062892 0.334044 -1.209513
2008-08-27 14:24:13 51°17.124 2°43.649 23.2523 0.062892 0.334061 -1.174688
2008-08-27 14:25:13 51°17.002 2°43.889 23.2654 0.062892 0.334055 -1.174688
2008-08-27 14:26:13 51°16.881 2°44.135 23.2444 0.062995 0.334589 -1.209513
2008-08-27 14:27:13 51°16.76 2°44.383 23.2472 0.062995 0.334595 -1.209513
2008-08-27 14:28:13 51°16.638 2°44.629 23.2432 0.062995 0.334595 -1.209513
2008-08-27 14:29:13 51°16.529 2°44.886 23.2276 0.062995 0.334606 -1.139864
2008-08-27 14:30:13 51°16.418 2°45.141 23.244 0.062995 0.334572 -1.174688
2008-08-27 14:31:13 51°16.308 2°45.398 23.2594 0.062995 0.334583 -1.174688
2008-08-27 14:32:13 51°16.196 2°45.651 23.2249 0.062995 0.334572 -1.035392
2008-08-27 14:33:13 51°16.087 2°45.908 23.2472 0.062995 0.334561 -1.10504
2008-08-27 14:34:13 51°16 2°46.185 23.2477 0.062995 0.334555 -1.139864
2008-08-27 14:35:13 51°15.924 2°46.467 23.2555 0.062995 0.334549 -1.174688
2008-08-27 14:36:13 51°15.852 2°46.752 23.2527 0.062995 0.334549 -1.174688
2008-08-27 14:37:13 51°15.795 2°47.048 23.2572 0.062995 0.334532 -1.174688
2008-08-27 14:38:13 51°15.753 2°47.349 23.252 0.062995 0.334532 -1.174688
2008-08-27 14:39:13 51°15.712 2°47.652 23.2572 0.062995 0.334532 -1.174688
2008-08-27 14:40:13 51°15.672 2°47.951 23.2581 0.062995 0.334538 -1.174688
2008-08-27 14:41:13 51°15.628 2°48.247 23.2576 0.062995 0.334544 -1.174688
2008-08-27 14:42:14 51°15.586 2°48.552 23.2602 0.062995 0.334549 -1.174688
2008-08-27 14:43:13 51°15.548 2°48.845 23.2605 0.062995 0.334555 -1.174688
2008-08-27 14:44:14 51°15.504 2°49.15 23.2629 0.062995 0.334555 -1.174688
2008-08-27 14:45:13 51°15.46 2°49.447 23.2648 0.062995 0.334572 -1.174688
2008-08-27 14:46:13 51°15.413 2°49.749 23.2666 0.062995 0.334589 -1.174688
2008-08-27 14:47:13 51°15.369 2°50.05 23.2695 0.062995 0.334595 -1.174688
2008-08-27 14:48:13 51°15.323 2°50.349 23.2718 0.062995 0.334612 -1.174688
2008-08-27 14:49:13 51°15.276 2°50.647 23.2739 0.062995 0.334629 -1.174688
2008-08-27 14:50:13 51°15.233 2°50.946 23.2765 0.062995 0.334635 -1.174688
2008-08-27 14:51:13 51°15.187 2°51.243 23.2772 0.062995 0.334652 -1.174688
2008-08-27 14:52:13 51°15.141 2°51.541 23.2788 0.062995 0.334657 -1.174688
2008-08-27 14:53:13 51°15.094 2°51.838 23.2805 0.062995 0.334657 -1.174688
2008-08-27 14:54:13 51°15.046 2°52.135 23.2838 0.062995 0.334669 -1.174688
2008-08-27 14:55:13 51°15.002 2°52.432 23.2899 0.062995 0.334674 -1.174688
2008-08-27 14:56:13 51°14.956 2°52.732 23.2924 0.062995 0.33468 -1.209513
2008-08-27 14:57:13 51°14.91 2°53.003 23.2971 0.062995 0.334691 -1.209513
2008-08-27 14:58:13 51°14.868 2°53.249 23.3011 0.062995 0.334709 -1.174688
2008-08-27 14:59:13 51°14.826 2°53.483 23.3032 0.062892 0.334151 -1.174688
2008-08-27 15:00:14 51°14.78 2°53.714 23.3039 0.062892 0.334163 -1.174688
2008-08-27 15:01:13 51°14.721 2°53.98 23.308 0.062892 0.33418 -1.174688
2008-08-27 15:02:14 51°14.65 2°54.266 23.3101 0.062892 0.334191 -1.174688
2008-08-27 15:03:13 51°14.564 2°54.541 23.3084 0.062892 0.334203 -1.209513
2008-08-27 15:04:13 51°14.468 2°54.816 23.3138 0.062892 0.334225 -1.174688
2008-08-27 15:05:13 51°14.358 2°55.072 23.3162 0.062892 0.334237 -1.174688